Terminal Aerodrome Forecast
Issued by NWS Grand Rapids, MI

Home | Current Version | Previous Version | Text Only | Print | Product List | Glossary On
Versions: 1 2 3 4 5 6 7 8 9 10 11 12 13 14 15 16 17 18 19 20 21 22
000
FTUS43 KGRR 191155 CCA
TAFGRR
TAF COR
KGRR 191155Z 1912/2012 07006KT P6SM VCSH BKN008 BKN100
     FM191330 08006KT P6SM VCSH BKN020
     FM191800 08006KT P6SM VCSH BKN035
     FM200000 07005KT P6SM OVC050
     FM200200 07005KT P6SM OVC025
     FM200300 07005KT 6SM BR OVC015
     FM200900 11003KT 1 1/2SM BR BKN007=

USA.gov is the U.S. government's official web portal to all federal, state and local government web resources and services.